Trammo Cornell — 9V5446 — position and weather

sailwx.info

Track history (hours):
 
Tides and Currents Weather Stations Pressure Air Temp Water Temp Dewpoint Dewpoint Depression Visibility Wind Speed Wind Dir Waves Ship Positions

Trammo Cornell

Last reported at 2018-Feb-12 19:25 UTC. Time now 2018-Feb-26 03:55 UTC.
Position N 09°48' W 079°58'.
Warning: this ship's position is 13 days out of date.

Length 172 m; draft 7.3 m.

Type: Tanker. MMSI: 563026400.

Date/timePositionNaut miles runAvg speedWind from/ knotsBaromVisibWave heightAir tempDewpointWater temp
2018-Feb-12 19:25N 09°48' W 079°58'512.3
2018-Feb-12 18:59N 09°42' W 079°59'612.5
2018-Feb-12 18:30N 09°37' W 079°57'612.4
2018-Feb-12 18:00N 09°31' W 079°56'612.4
2018-Feb-12 17:30N 09°24' W 079°55'5 9.9
2018-Feb-12 17:00N 09°19' W 079°55'3 5.2
2018-Feb-12 16:30N 09°17' W 079°55'0 0.9
2018-Feb-12 16:00N 09°16' W 079°55'0 0.4
2018-Feb-12 15:30N 09°16' W 079°55'0 0.4
2018-Feb-12 15:00N 09°16' W 079°55'1 1.1
2018-Feb-12 14:30N 09°15' W 079°55'0 0.9
2018-Feb-12 14:00N 09°15' W 079°55'4 5.2
2018-Feb-12 13:10N 09°11' W 079°53'  
Track history (hours):
 
Tides and Currents Weather Stations Pressure Air Temp Water Temp Dewpoint Dewpoint Depression Visibility Wind Speed Wind Dir Waves Ship Positions

Trammo Cornell

Last reported at 2018-Feb-12 19:25 UTC. Time now 2018-Feb-26 03:55 UTC.
Position N 09°48' W 079°58'.
Warning: this ship's position is 13 days out of date.

Length 172 m; draft 7.3 m.

Type: Tanker. MMSI: 563026400.

Date/timePositionNaut miles runAvg speedWind from/ knotsBaromVisibWave heightAir tempDewpointWater temp
2018-Feb-12 19:25N 09°48' W 079°58'512.3
2018-Feb-12 18:59N 09°42' W 079°59'612.5
2018-Feb-12 18:30N 09°37' W 079°57'612.4
2018-Feb-12 18:00N 09°31' W 079°56'612.4
2018-Feb-12 17:30N 09°24' W 079°55'5 9.9
2018-Feb-12 17:00N 09°19' W 079°55'3 5.2
2018-Feb-12 16:30N 09°17' W 079°55'0 0.9
2018-Feb-12 16:00N 09°16' W 079°55'0 0.4
2018-Feb-12 15:30N 09°16' W 079°55'0 0.4
2018-Feb-12 15:00N 09°16' W 079°55'1 1.1
2018-Feb-12 14:30N 09°15' W 079°55'0 0.9
2018-Feb-12 14:00N 09°15' W 079°55'4 5.2
2018-Feb-12 13:10N 09°11' W 079°53'  

Dump ship's entire track history